sensor_id;sensor_type;location;lat;lon;timestamp;pressure;altitude;pressure_sealevel;temperature;humidity
58927;BME280;44712;52.530;9.760;2023-02-20T00:01:25;101724.38;;;4.98;100.00
58927;BME280;44712;52.530;9.760;2023-02-20T00:03:53;101723.59;;;5.02;100.00
58927;BME280;44712;52.530;9.760;2023-02-20T00:06:20;101715.69;;;5.08;100.00
58927;BME280;44712;52.530;9.760;2023-02-20T00:08:46;101715.66;;;5.07;100.00
58927;BME280;44712;52.530;9.760;2023-02-20T00:11:13;101714.00;;;5.12;100.00
58927;BME280;44712;52.530;9.760;2023-02-20T00:13:47;101715.00;;;5.17;100.00
58927;BME280;44712;52.530;9.760;2023-02-20T00:16:14;101715.09;;;5.20;100.00
58927;BME280;44712;52.530;9.760;2023-02-20T00:18:40;101698.09;;;5.21;100.00
58927;BME280;44712;52.530;9.760;2023-02-20T00:21:07;101699.00;;;5.20;100.00
58927;BME280;44712;52.530;9.760;2023-02-20T00:23:34;101691.81;;;5.19;100.00
58927;BME280;44712;52.530;9.760;2023-02-20T00:26:01;101694.50;;;5.19;100.00
58927;BME280;44712;52.530;9.760;2023-02-20T00:28:27;101684.84;;;5.27;100.00
58927;BME280;44712;52.530;9.760;2023-02-20T00:30:55;101684.78;;;5.24;100.00
58927;BME280;44712;52.530;9.760;2023-02-20T00:33:22;101686.66;;;5.28;100.00
58927;BME280;44712;52.530;9.760;2023-02-20T00:35:49;101678.63;;;5.30;100.00
58927;BME280;44712;52.530;9.760;2023-02-20T00:38:16;101684.84;;;5.27;100.00
58927;BME280;44712;52.530;9.760;2023-02-20T00:40:42;101677.75;;;5.29;100.00
58927;BME280;44712;52.530;9.760;2023-02-20T00:43:11;101664.56;;;5.40;100.00
58927;BME280;44712;52.530;9.760;2023-02-20T00:45:38;101663.75;;;5.43;100.00
58927;BME280;44712;52.530;9.760;2023-02-20T00:48:05;101660.16;;;5.44;100.00
58927;BME280;44712;52.530;9.760;2023-02-20T00:50:31;101654.66;;;5.38;100.00
58927;BME280;44712;52.530;9.760;2023-02-20T00:52:58;101651.13;;;5.39;100.00
58927;BME280;44712;52.530;9.760;2023-02-20T00:55:25;101652.88;;;5.38;100.00
58927;BME280;44712;52.530;9.760;2023-02-20T00:57:53;101647.63;;;5.43;100.00
58927;BME280;44712;52.530;9.760;2023-02-20T01:00:27;101643.13;;;5.42;100.00
58927;BME280;44712;52.530;9.760;2023-02-20T01:02:55;101638.63;;;5.41;100.00
58927;BME280;44712;52.530;9.760;2023-02-20T01:05:22;101647.63;;;5.43;100.00
58927;BME280;44712;52.530;9.760;2023-02-20T01:07:49;101649.50;;;5.47;100.00
58927;BME280;44712;52.530;9.760;2023-02-20T01:10:17;101638.69;;;5.44;100.00
58927;BME280;44712;52.530;9.760;2023-02-20T01:12:44;101628.81;;;5.43;100.00
58927;BME280;44712;52.530;9.760;2023-02-20T01:15:17;101632.44;;;5.45;100.00
58927;BME280;44712;52.530;9.760;2023-02-20T01:17:45;101633.47;;;5.51;100.00
58927;BME280;44712;52.530;9.760;2023-02-20T01:20:12;101628.09;;;5.50;100.00
58927;BME280;44712;52.530;9.760;2023-02-20T01:22:38;101610.09;;;5.46;100.00
58927;BME280;44712;52.530;9.760;2023-02-20T01:25:07;101595.81;;;5.47;100.00
58927;BME280;44712;52.530;9.760;2023-02-20T01:27:33;101597.53;;;5.45;100.00
58927;BME280;44712;52.530;9.760;2023-02-20T01:30:00;101579.75;;;5.50;100.00
58927;BME280;44712;52.530;9.760;2023-02-20T01:32:26;101579.75;;;5.50;100.00
58927;BME280;44712;52.530;9.760;2023-02-20T01:34:53;101576.19;;;5.51;100.00
58927;BME280;44712;52.530;9.760;2023-02-20T01:37:20;101579.66;;;5.45;100.00
58927;BME280;44712;52.530;9.760;2023-02-20T01:39:47;101579.69;;;5.47;100.00
58927;BME280;44712;52.530;9.760;2023-02-20T01:42:18;101575.25;;;5.49;100.00
58927;BME280;44712;52.530;9.760;2023-02-20T01:44:48;101576.13;;;5.48;100.00
58927;BME280;44712;52.530;9.760;2023-02-20T01:47:17;101573.38;;;5.45;100.00
58927;BME280;44712;52.530;9.760;2023-02-20T01:49:59;101568.88;;;5.44;100.00
58927;BME280;44712;52.530;9.760;2023-02-20T01:52:30;101559.00;;;5.41;100.00
58927;BME280;44712;52.530;9.760;2023-02-20T01:57:36;101553.69;;;5.44;100.00
58927;BME280;44712;52.530;9.760;2023-02-20T02:00:13;101564.31;;;5.40;100.00
58927;BME280;44712;52.530;9.760;2023-02-20T02:02:46;101552.69;;;5.41;100.00
58927;BME280;44712;52.530;9.760;2023-02-20T02:05:17;101530.31;;;5.40;100.00
58927;BME280;44712;52.530;9.760;2023-02-20T02:07:44;101531.22;;;5.41;100.00
58927;BME280;44712;52.530;9.760;2023-02-20T02:10:18;101526.84;;;5.46;100.00
58927;BME280;44712;52.530;9.760;2023-02-20T02:12:48;101522.25;;;5.39;100.00
58927;BME280;44712;52.530;9.760;2023-02-20T02:15:20;101519.66;;;5.45;100.00
58927;BME280;44712;52.530;9.760;2023-02-20T02:18:08;101511.50;;;5.39;100.00
58927;BME280;44712;52.530;9.760;2023-02-20T02:24:04;101506.84;;;5.31;100.00
58927;BME280;44712;52.530;9.760;2023-02-20T02:27:16;101490.66;;;5.27;100.00
58927;BME280;44712;52.530;9.760;2023-02-20T02:30:07;101480.81;;;5.27;100.00
58927;BME280;44712;52.530;9.760;2023-02-20T02:38:21;101477.97;;;5.19;100.00
58927;BME280;44712;52.530;9.760;2023-02-20T02:43:53;101464.66;;;5.24;100.00
58927;BME280;44712;52.530;9.760;2023-02-20T02:46:31;101461.13;;;5.25;100.00
58927;BME280;44712;52.530;9.760;2023-02-20T02:49:22;101461.22;;;5.31;100.00
58927;BME280;44712;52.530;9.760;2023-02-20T02:51:52;101450.66;;;5.41;100.00
58927;BME280;44712;52.530;9.760;2023-02-20T02:54:25;101447.97;;;5.39;100.00
58927;BME280;44712;52.530;9.760;2023-02-20T02:59:44;101445.31;;;5.41;100.00
58927;BME280;44712;52.530;9.760;2023-02-20T03:02:14;101449.78;;;5.40;100.00
58927;BME280;44712;52.530;9.760;2023-02-20T03:04:44;101441.75;;;5.42;100.00
58927;BME280;44712;52.530;9.760;2023-02-20T03:07:15;101432.69;;;5.36;100.00
58927;BME280;44712;52.530;9.760;2023-02-20T03:09:53;101431.91;;;5.42;100.00
58927;BME280;44712;52.530;9.760;2023-02-20T03:12:25;101438.25;;;5.46;100.00
58927;BME280;44712;52.530;9.760;2023-02-20T03:14:58;101436.44;;;5.45;100.00
58927;BME280;44712;52.530;9.760;2023-02-20T03:20:24;101446.44;;;5.52;100.00
58927;BME280;44712;52.530;9.760;2023-02-20T03:22:58;101436.56;;;5.51;100.00
58927;BME280;44712;52.530;9.760;2023-02-20T03:28:02;101410.72;;;5.58;100.00
58927;BME280;44712;52.530;9.760;2023-02-20T03:30:36;101394.59;;;5.58;100.00
58927;BME280;44712;52.530;9.760;2023-02-20T03:33:12;101399.22;;;5.66;100.00
58927;BME280;44712;52.530;9.760;2023-02-20T03:36:03;101393.81;;;5.63;100.00
58927;BME280;44712;52.530;9.760;2023-02-20T03:38:55;101399.19;;;5.63;100.00
58927;BME280;44712;52.530;9.760;2023-02-20T03:41:46;101377.69;;;5.63;100.00
58927;BME280;44712;52.530;9.760;2023-02-20T03:44:34;101367.06;;;5.69;100.00
58927;BME280;44712;52.530;9.760;2023-02-20T03:47:02;101370.66;;;5.72;100.00
58927;BME280;44712;52.530;9.760;2023-02-20T03:49:39;101358.25;;;5.80;100.00
58927;BME280;44712;52.530;9.760;2023-02-20T03:52:11;101350.16;;;5.77;100.00
58927;BME280;44712;52.530;9.760;2023-02-20T03:54:39;101356.63;;;5.88;100.00
58927;BME280;44712;52.530;9.760;2023-02-20T03:57:36;101349.41;;;5.84;100.00
58927;BME280;44712;52.530;9.760;2023-02-20T04:00:08;101364.63;;;5.86;100.00
58927;BME280;44712;52.530;9.760;2023-02-20T04:02:50;101345.78;;;5.82;100.00
58927;BME280;44712;52.530;9.760;2023-02-20T04:05:25;101350.44;;;5.94;100.00
58927;BME280;44712;52.530;9.760;2023-02-20T04:10:29;101363.00;;;5.95;100.00
58927;BME280;44712;52.530;9.760;2023-02-20T04:13:02;101362.09;;;5.94;100.00
58927;BME280;44712;52.530;9.760;2023-02-20T04:15:32;101369.34;;;5.98;100.00
58927;BME280;44712;52.530;9.760;2023-02-20T04:18:04;101370.28;;;5.99;100.00
58927;BME280;44712;52.530;9.760;2023-02-20T04:20:34;101359.56;;;6.02;100.00
58927;BME280;44712;52.530;9.760;2023-02-20T04:23:20;101329.25;;;6.11;100.00
58927;BME280;44712;52.530;9.760;2023-02-20T04:25:56;101315.81;;;6.11;100.00
58927;BME280;44712;52.530;9.760;2023-02-20T04:28:24;101299.69;;;6.11;100.00
58927;BME280;44712;52.530;9.760;2023-02-20T04:30:56;101300.56;;;6.11;100.00
58927;BME280;44712;52.530;9.760;2023-02-20T04:33:24;101306.84;;;6.12;100.00
58927;BME280;44712;52.530;9.760;2023-02-20T04:35:54;101306.00;;;6.16;100.00
58927;BME280;44712;52.530;9.760;2023-02-20T04:38:24;101312.28;;;6.15;100.00
58927;BME280;44712;52.530;9.760;2023-02-20T04:40:57;101293.47;;;6.16;100.00
58927;BME280;44712;52.530;9.760;2023-02-20T04:43:24;101302.44;;;6.17;100.00
58927;BME280;44712;52.530;9.760;2023-02-20T04:45:51;101315.00;;;6.18;100.00
58927;BME280;44712;52.530;9.760;2023-02-20T04:48:17;101315.00;;;6.18;100.00
58927;BME280;44712;52.530;9.760;2023-02-20T04:50:45;101315.94;;;6.20;100.00
58927;BME280;44712;52.530;9.760;2023-02-20T04:53:13;101308.75;;;6.19;100.00
58927;BME280;44712;52.530;9.760;2023-02-20T04:55:40;101317.69;;;6.18;100.00
58927;BME280;44712;52.530;9.760;2023-02-20T04:58:11;101321.25;;;6.17;100.00
58927;BME280;44712;52.530;9.760;2023-02-20T05:00:50;101325.72;;;6.15;100.00
58927;BME280;44712;52.530;9.760;2023-02-20T05:03:17;101317.66;;;6.15;100.00
58927;BME280;44712;52.530;9.760;2023-02-20T05:05:43;101310.47;;;6.14;100.00
58927;BME280;44712;52.530;9.760;2023-02-20T05:08:10;101327.56;;;6.19;100.00
58927;BME280;44712;52.530;9.760;2023-02-20T05:10:36;101330.41;;;6.28;100.00
58927;BME280;44712;52.530;9.760;2023-02-20T05:13:04;101310.66;;;6.28;100.00
58927;BME280;44712;52.530;9.760;2023-02-20T05:15:31;101301.72;;;6.30;100.00
58927;BME280;44712;52.530;9.760;2023-02-20T05:17:58;101299.88;;;6.26;100.00
58927;BME280;44712;52.530;9.760;2023-02-20T05:20:24;101304.47;;;6.33;100.00
58927;BME280;44712;52.530;9.760;2023-02-20T05:23:11;101300.03;;;6.39;100.00
58927;BME280;44712;52.530;9.760;2023-02-20T05:25:38;101301.81;;;6.36;100.00
58927;BME280;44712;52.530;9.760;2023-02-20T05:28:05;101292.88;;;6.38;100.00
58927;BME280;44712;52.530;9.760;2023-02-20T05:30:31;101275.81;;;6.35;100.00
58927;BME280;44712;52.530;9.760;2023-02-20T05:32:58;101272.25;;;6.38;100.00
58927;BME280;44712;52.530;9.760;2023-02-20T05:35:25;101264.22;;;6.40;100.00
58927;BME280;44712;52.530;9.760;2023-02-20T05:37:54;101260.63;;;6.41;100.00
58927;BME280;44712;52.530;9.760;2023-02-20T05:40:21;101249.09;;;6.49;100.00
58927;BME280;44712;52.530;9.760;2023-02-20T05:42:48;101257.19;;;6.51;100.00
58927;BME280;44712;52.530;9.760;2023-02-20T05:45:15;101258.09;;;6.53;100.00
58927;BME280;44712;52.530;9.760;2023-02-20T05:47:41;101256.31;;;6.53;100.00
58927;BME280;44712;52.530;9.760;2023-02-20T05:50:08;101246.44;;;6.51;100.00
58927;BME280;44712;52.530;9.760;2023-02-20T05:52:35;101236.56;;;6.51;100.00
58927;BME280;44712;52.530;9.760;2023-02-20T05:55:02;101232.16;;;6.58;100.00
58927;BME280;44712;52.530;9.760;2023-02-20T05:57:29;101224.94;;;6.54;100.00
58927;BME280;44712;52.530;9.760;2023-02-20T05:59:55;101229.44;;;6.57;100.00
58927;BME280;44712;52.530;9.760;2023-02-20T06:02:22;101230.31;;;6.54;100.00
58927;BME280;44712;52.530;9.760;2023-02-20T06:04:49;101219.59;;;6.59;100.00
58927;BME280;44712;52.530;9.760;2023-02-20T06:07:16;101221.41;;;6.58;100.00
58927;BME280;44712;52.530;9.760;2023-02-20T06:09:44;101221.38;;;6.55;100.00
58927;BME280;44712;52.530;9.760;2023-02-20T06:12:11;101227.75;;;6.66;100.00
58927;BME280;44712;52.530;9.760;2023-02-20T06:14:38;101234.03;;;6.65;100.00
58927;BME280;44712;52.530;9.760;2023-02-20T06:17:06;101214.31;;;6.66;100.00
58927;BME280;44712;52.530;9.760;2023-02-20T06:19:33;101226.84;;;6.64;100.00
58927;BME280;44712;52.530;9.760;2023-02-20T06:22:01;101218.78;;;6.63;100.00
58927;BME280;44712;52.530;9.760;2023-02-20T06:24:28;101223.31;;;6.68;100.00
58927;BME280;44712;52.530;9.760;2023-02-20T06:26:55;101235.84;;;6.66;100.00
58927;BME280;44712;52.530;9.760;2023-02-20T06:29:22;101226.88;;;6.67;100.00
58927;BME280;44712;52.530;9.760;2023-02-20T06:31:49;101214.25;;;6.60;100.00
58927;BME280;44712;52.530;9.760;2023-02-20T06:34:16;101218.78;;;6.63;100.00
58927;BME280;44712;52.530;9.760;2023-02-20T06:36:43;101230.44;;;6.63;100.00
58927;BME280;44712;52.530;9.760;2023-02-20T06:39:12;101222.38;;;6.68;100.00
58927;BME280;44712;52.530;9.760;2023-02-20T06:41:39;101232.28;;;6.70;100.00
58927;BME280;44712;52.530;9.760;2023-02-20T06:44:06;101234.09;;;6.72;100.00
58927;BME280;44712;52.530;9.760;2023-02-20T06:46:33;101230.44;;;6.66;100.00
58927;BME280;44712;52.530;9.760;2023-02-20T06:49:00;101237.66;;;6.70;100.00
58927;BME280;44712;52.530;9.760;2023-02-20T06:51:29;101235.91;;;6.73;100.00
58927;BME280;44712;52.530;9.760;2023-02-20T06:53:56;101226.03;;;6.72;100.00
58927;BME280;44712;52.530;9.760;2023-02-20T06:56:29;101232.28;;;6.70;100.00
58927;BME280;44712;52.530;9.760;2023-02-20T06:58:56;101238.53;;;6.68;100.00
58927;BME280;44712;52.530;9.760;2023-02-20T07:01:25;101234.06;;;6.68;100.00
58927;BME280;44712;52.530;9.760;2023-02-20T07:03:55;101217.84;;;6.62;100.00
58927;BME280;44712;52.530;9.760;2023-02-20T07:06:25;101224.13;;;6.61;100.00
58927;BME280;44712;52.530;9.760;2023-02-20T07:08:51;101223.22;;;6.62;100.00
58927;BME280;44712;52.530;9.760;2023-02-20T07:11:20;101219.66;;;6.60;100.00
58927;BME280;44712;52.530;9.760;2023-02-20T07:13:48;101217.84;;;6.59;100.00
58927;BME280;44712;52.530;9.760;2023-02-20T07:16:15;101216.00;;;6.55;100.00
58927;BME280;44712;52.530;9.760;2023-02-20T07:18:42;101214.22;;;6.57;100.00
58927;BME280;44712;52.530;9.760;2023-02-20T07:21:09;101216.84;;;6.52;100.00
58927;BME280;44712;52.530;9.760;2023-02-20T07:23:36;101214.19;;;6.54;100.00
58927;BME280;44712;52.530;9.760;2023-02-20T07:26:02;101210.56;;;6.52;100.00
58927;BME280;44712;52.530;9.760;2023-02-20T07:28:29;101198.91;;;6.50;100.00
58927;BME280;44712;52.530;9.760;2023-02-20T07:30:56;101219.56;;;6.54;100.00
58927;BME280;44712;52.530;9.760;2023-02-20T07:33:22;101221.28;;;6.49;100.00
58927;BME280;44712;52.530;9.760;2023-02-20T07:35:49;101222.22;;;6.49;100.00
58927;BME280;44712;52.530;9.760;2023-02-20T07:38:15;101231.16;;;6.48;100.00
58927;BME280;44712;52.530;9.760;2023-02-20T07:40:42;101224.84;;;6.48;100.00
58927;BME280;44712;52.530;9.760;2023-02-20T07:43:09;101235.69;;;6.51;100.00
58927;BME280;44712;52.530;9.760;2023-02-20T07:45:40;101233.84;;;6.47;100.00
58927;BME280;44712;52.530;9.760;2023-02-20T07:48:08;101234.75;;;6.52;100.00
58927;BME280;44712;52.530;9.760;2023-02-20T07:50:34;101233.84;;;6.50;100.00
58927;BME280;44712;52.530;9.760;2023-02-20T07:53:01;101231.22;;;6.54;100.00
58927;BME280;44712;52.530;9.760;2023-02-20T07:55:28;101233.88;;;6.53;100.00
58927;BME280;44712;52.530;9.760;2023-02-20T07:57:54;101226.75;;;6.55;100.00
58927;BME280;44712;52.530;9.760;2023-02-20T08:00:25;101214.16;;;6.51;100.00
58927;BME280;44712;52.530;9.760;2023-02-20T08:02:52;101212.34;;;6.50;100.00
58927;BME280;44712;52.530;9.760;2023-02-20T08:05:18;101205.09;;;6.43;100.00
58927;BME280;44712;52.530;9.760;2023-02-20T08:07:47;101194.41;;;6.49;100.00
58927;BME280;44712;52.530;9.760;2023-02-20T08:10:15;101213.19;;;6.44;100.00
58927;BME280;44712;52.530;9.760;2023-02-20T08:12:43;101198.03;;;6.51;100.00
58927;BME280;44712;52.530;9.760;2023-02-20T08:15:09;101204.25;;;6.48;100.00
58927;BME280;44712;52.530;9.760;2023-02-20T08:17:38;101209.75;;;6.56;100.00
58927;BME280;44712;52.530;9.760;2023-02-20T08:20:15;101210.63;;;6.58;100.00
58927;BME280;44712;52.530;9.760;2023-02-20T08:22:44;101208.81;;;6.54;100.00
58927;BME280;44712;52.530;9.760;2023-02-20T08:25:11;101189.94;;;6.49;100.00
58927;BME280;44712;52.530;9.760;2023-02-20T08:27:42;101199.81;;;6.52;100.00
58927;BME280;44712;52.530;9.760;2023-02-20T08:30:12;101185.56;;;6.62;100.00
58927;BME280;44712;52.530;9.760;2023-02-20T08:32:40;101201.78;;;6.68;100.00
58927;BME280;44712;52.530;9.760;2023-02-20T08:35:07;101187.38;;;6.63;100.00
58927;BME280;44712;52.530;9.760;2023-02-20T08:37:33;101193.72;;;6.67;100.00
58927;BME280;44712;52.530;9.760;2023-02-20T08:40:00;101191.03;;;6.68;100.00
58927;BME280;44712;52.530;9.760;2023-02-20T08:42:32;101193.72;;;6.67;100.00
58927;BME280;44712;52.530;9.760;2023-02-20T08:45:00;101189.22;;;6.67;100.00
58927;BME280;44712;52.530;9.760;2023-02-20T08:47:27;101201.81;;;6.70;100.00
58927;BME280;44712;52.530;9.760;2023-02-20T08:49:53;101194.63;;;6.70;100.00
58927;BME280;44712;52.530;9.760;2023-02-20T08:52:20;101198.25;;;6.73;100.00
58927;BME280;44712;52.530;9.760;2023-02-20T08:54:47;101191.06;;;6.72;100.00
58927;BME280;44712;52.530;9.760;2023-02-20T08:57:16;101194.69;;;6.77;100.00
58927;BME280;44712;52.530;9.760;2023-02-20T08:59:43;101198.31;;;6.79;100.00
58927;BME280;44712;52.530;9.760;2023-02-20T09:02:22;101187.50;;;6.76;100.00
58927;BME280;44712;52.530;9.760;2023-02-20T09:04:50;101189.34;;;6.80;100.00
58927;BME280;44712;52.530;9.760;2023-02-20T09:07:18;101191.22;;;6.87;100.00
58927;BME280;44712;52.530;9.760;2023-02-20T09:09:44;101170.56;;;6.83;100.00
58927;BME280;44712;52.530;9.760;2023-02-20T09:12:11;101180.41;;;6.84;100.00
58927;BME280;44712;52.530;9.760;2023-02-20T09:14:38;101179.47;;;6.79;100.00
58927;BME280;44712;52.530;9.760;2023-02-20T09:17:05;101173.19;;;6.80;100.00
58927;BME280;44712;52.530;9.760;2023-02-20T09:19:31;101175.94;;;6.86;100.00
58927;BME280;44712;52.530;9.760;2023-02-20T09:21:58;101170.59;;;6.89;100.00
58927;BME280;44712;52.530;9.760;2023-02-20T09:24:25;101154.50;;;6.95;100.00
58927;BME280;44712;52.530;9.760;2023-02-20T09:26:57;101157.22;;;7.01;100.00
58927;BME280;44712;52.530;9.760;2023-02-20T09:29:24;101155.44;;;7.00;100.00
58927;BME280;44712;52.530;9.760;2023-02-20T09:31:51;101150.03;;;6.97;100.00
58927;BME280;44712;52.530;9.760;2023-02-20T09:34:18;101147.31;;;6.96;100.00
58927;BME280;44712;52.530;9.760;2023-02-20T09:36:45;101137.44;;;6.93;100.00
58927;BME280;44712;52.530;9.760;2023-02-20T09:39:11;101139.25;;;6.97;100.00
58927;BME280;44712;52.530;9.760;2023-02-20T09:41:52;101124.91;;;6.95;100.00
58927;BME280;44712;52.530;9.760;2023-02-20T09:44:35;101123.09;;;6.97;100.00
58927;BME280;44712;52.530;9.760;2023-02-20T09:47:41;101129.41;;;6.98;100.00
58927;BME280;44712;52.530;9.760;2023-02-20T09:50:20;101124.91;;;6.98;100.00
58927;BME280;44712;52.530;9.760;2023-02-20T09:52:53;101127.59;;;6.97;100.00
58927;BME280;44712;52.530;9.760;2023-02-20T09:55:26;101117.78;;;7.00;100.00
58927;BME280;44712;52.530;9.760;2023-02-20T09:57:55;101114.16;;;6.95;100.00
58927;BME280;44712;52.530;9.760;2023-02-20T10:00:27;101110.53;;;6.93;100.00
58927;BME280;44712;52.530;9.760;2023-02-20T10:03:14;101106.97;;;6.97;100.00
58927;BME280;44712;52.530;9.760;2023-02-20T10:05:43;101114.16;;;7.01;100.00
58927;BME280;44712;52.530;9.760;2023-02-20T10:08:19;101103.41;;;7.01;100.00
58927;BME280;44712;52.530;9.760;2023-02-20T10:10:50;101105.25;;;7.07;100.00
58927;BME280;44712;52.530;9.760;2023-02-20T10:19:30;101113.28;;;7.04;100.00
58927;BME280;44712;52.530;9.760;2023-02-20T10:22:17;101120.53;;;7.10;100.00
58927;BME280;44712;52.530;9.760;2023-02-20T10:27:53;101107.97;;;7.10;100.00
58927;BME280;44712;52.530;9.760;2023-02-20T10:30:39;101121.41;;;7.09;100.00
58927;BME280;44712;52.530;9.760;2023-02-20T10:33:23;101107.97;;;7.10;100.00
58927;BME280;44712;52.530;9.760;2023-02-20T10:38:27;101099.88;;;7.09;100.00
58927;BME280;44712;52.530;9.760;2023-02-20T10:41:05;101112.47;;;7.13;100.00
58927;BME280;44712;52.530;9.760;2023-02-20T10:43:48;101113.41;;;7.15;100.00
58927;BME280;44712;52.530;9.760;2023-02-20T10:46:33;101115.19;;;7.16;100.00
58927;BME280;44712;52.530;9.760;2023-02-20T10:49:34;101108.91;;;7.14;100.00
58927;BME280;44712;52.530;9.760;2023-02-20T10:52:02;101105.34;;;7.18;100.00
58927;BME280;44712;52.530;9.760;2023-02-20T10:54:46;101121.50;;;7.21;100.00
58927;BME280;44712;52.530;9.760;2023-02-20T10:57:24;101142.16;;;7.25;100.00
58927;BME280;44712;52.530;9.760;2023-02-20T10:59:58;101121.50;;;7.21;100.00
58927;BME280;44712;52.530;9.760;2023-02-20T11:02:35;101128.69;;;7.22;100.00
58927;BME280;44712;52.530;9.760;2023-02-20T11:05:08;101131.41;;;7.24;100.00
58927;BME280;44712;52.530;9.760;2023-02-20T11:07:37;101133.22;;;7.28;100.00
58927;BME280;44712;52.530;9.760;2023-02-20T11:10:04;101130.56;;;7.32;100.00
58927;BME280;44712;52.530;9.760;2023-02-20T11:12:45;101133.28;;;7.35;100.00
58927;BME280;44712;52.530;9.760;2023-02-20T11:15:17;101128.75;;;7.33;100.00
58927;BME280;44712;52.530;9.760;2023-02-20T11:17:45;101129.69;;;7.35;100.00
58927;BME280;44712;52.530;9.760;2023-02-20T11:29:15;101106.41;;;7.45;100.00
58927;BME280;44712;52.530;9.760;2023-02-20T11:31:43;101100.13;;;7.44;100.00
58927;BME280;44712;52.530;9.760;2023-02-20T11:34:20;101116.28;;;7.46;100.00
58927;BME280;44712;52.530;9.760;2023-02-20T11:36:52;101072.31;;;7.48;100.00
58927;BME280;44712;52.530;9.760;2023-02-20T11:39:22;101076.81;;;7.51;100.00
58927;BME280;44712;52.530;9.760;2023-02-20T11:42:04;101076.78;;;7.48;100.00
58927;BME280;44712;52.530;9.760;2023-02-20T11:44:31;101068.75;;;7.51;100.00
58927;BME280;44712;52.530;9.760;2023-02-20T11:47:16;101071.41;;;7.49;100.00
58927;BME280;44712;52.530;9.760;2023-02-20T11:49:43;101073.22;;;7.49;100.00
58927;BME280;44712;52.530;9.760;2023-02-20T11:54:44;101069.59;;;7.44;100.00
58927;BME280;44712;52.530;9.760;2023-02-20T11:57:17;101078.53;;;7.40;100.00
58927;BME280;44712;52.530;9.760;2023-02-20T11:59:47;101073.19;;;7.46;100.00
58927;BME280;44712;52.530;9.760;2023-02-20T12:04:42;101079.47;;;7.45;100.00
58927;BME280;44712;52.530;9.760;2023-02-20T12:12:41;101051.66;;;7.46;100.00
58927;BME280;44712;52.530;9.760;2023-02-20T12:15:16;101026.50;;;7.47;100.00
58927;BME280;44712;52.530;9.760;2023-02-20T12:20:33;101055.22;;;7.46;100.00
58927;BME280;44712;52.530;9.760;2023-02-20T12:25:49;101059.75;;;7.49;100.00
58927;BME280;44712;52.530;9.760;2023-02-20T12:33:40;101068.69;;;7.45;100.00
58927;BME280;44712;52.530;9.760;2023-02-20T13:00:46;101048.97;;;7.47;100.00
58927;BME280;44712;52.530;9.760;2023-02-20T13:06:04;101048.06;;;7.50;100.00
58927;BME280;44712;52.530;9.760;2023-02-20T13:08:36;101037.31;;;7.53;100.00
58927;BME280;44712;52.530;9.760;2023-02-20T13:11:11;101048.97;;;7.53;100.00
58927;BME280;44712;52.530;9.760;2023-02-20T13:16:45;101030.16;;;7.61;100.00
58927;BME280;44712;52.530;9.760;2023-02-20T13:22:07;101023.88;;;7.64;100.00
58927;BME280;44712;52.530;9.760;2023-02-20T13:24:36;101037.34;;;7.62;100.00
58927;BME280;44712;52.530;9.760;2023-02-20T13:27:05;101031.97;;;7.65;100.00
58927;BME280;44712;52.530;9.760;2023-02-20T13:29:35;101045.44;;;7.67;100.00
58927;BME280;44712;52.530;9.760;2023-02-20T13:32:23;101032.00;;;7.68;100.00
58927;BME280;44712;52.530;9.760;2023-02-20T13:34:50;101015.84;;;7.71;100.00
58927;BME280;44712;52.530;9.760;2023-02-20T13:45:44;101010.44;;;7.71;100.00
58927;BME280;44712;52.530;9.760;2023-02-20T13:53:50;101023.03;;;7.73;100.00
58927;BME280;44712;52.530;9.760;2023-02-20T13:56:21;101014.03;;;7.72;100.00
58927;BME280;44712;52.530;9.760;2023-02-20T13:58:50;101010.41;;;7.65;100.00
58927;BME280;44712;52.530;9.760;2023-02-20T14:01:18;101014.03;;;7.64;100.00
58927;BME280;44712;52.530;9.760;2023-02-20T14:03:44;101008.63;;;7.64;100.00
58927;BME280;44712;52.530;9.760;2023-02-20T14:06:18;101007.72;;;7.65;100.00
58927;BME280;44712;52.530;9.760;2023-02-20T14:08:48;101004.13;;;7.62;100.00
58927;BME280;44712;52.530;9.760;2023-02-20T14:11:30;101002.31;;;7.61;100.00
58927;BME280;44712;52.530;9.760;2023-02-20T14:13:58;100996.94;;;7.62;100.00
58927;BME280;44712;52.530;9.760;2023-02-20T14:16:31;100999.63;;;7.58;100.00
58927;BME280;44712;52.530;9.760;2023-02-20T14:19:01;100996.03;;;7.57;100.00
58927;BME280;44712;52.530;9.760;2023-02-20T14:21:28;100996.03;;;7.59;100.00
58927;BME280;44712;52.530;9.760;2023-02-20T14:23:56;100998.72;;;7.59;100.00
58927;BME280;44712;52.530;9.760;2023-02-20T14:26:24;100996.03;;;7.60;100.00
58927;BME280;44712;52.530;9.760;2023-02-20T14:28:53;100998.75;;;7.62;100.00
58927;BME280;44712;52.530;9.760;2023-02-20T14:31:25;100993.34;;;7.63;100.00
58927;BME280;44712;52.530;9.760;2023-02-20T14:34:00;101012.19;;;7.59;100.00
58927;BME280;44712;52.530;9.760;2023-02-20T14:41:54;101001.41;;;7.60;100.00
58927;BME280;44712;52.530;9.760;2023-02-20T14:44:21;101005.03;;;7.59;100.00
58927;BME280;44712;52.530;9.760;2023-02-20T14:46:55;101001.41;;;7.57;100.00
58927;BME280;44712;52.530;9.760;2023-02-20T14:49:26;101024.75;;;7.55;100.00
58927;BME280;44712;52.530;9.760;2023-02-20T14:54:37;101024.75;;;7.58;100.00
58927;BME280;44712;52.530;9.760;2023-02-20T14:57:05;101004.97;;;7.56;100.00
58927;BME280;44712;52.530;9.760;2023-02-20T14:59:34;101003.22;;;7.55;100.00
58927;BME280;44712;52.530;9.760;2023-02-20T15:02:20;101013.94;;;7.52;100.00
58927;BME280;44712;52.530;9.760;2023-02-20T15:07:26;101012.19;;;7.56;100.00
58927;BME280;44712;52.530;9.760;2023-02-20T15:09:57;101023.84;;;7.54;100.00
58927;BME280;44712;52.530;9.760;2023-02-20T15:12:30;101020.25;;;7.56;100.00
58927;BME280;44712;52.530;9.760;2023-02-20T15:17:29;101023.84;;;7.56;100.00